Bluewell, West Virginia
Current Conditions -  °F | °C
As of 10:52 PM on Wednesday 17 Dec 2014 (Local Time) from KBLF Reporting Station
Overcast Overcast  
Wind Chill: 23°   Ceiling: 900
Heat Index: 32°   Visibility: 10mi
Dew Point: 25°   Wind: 12mph
Humidity: 75%   Direction: 270°W
Pressure: 30.11"   Gusts: NA
Location:  37.2994°N, 81.226°W
Report Text: KBLF 180352Z AUTO 27010KT 10SM OVC009 00/M04 A3011 RMK AO2 SLP208 T00001039
Loading
Personal Weather Stations






























Interactive Weather Map New forecast layout! Learn more

10-Day Weather Forecast

Advertisements
Track Severe Weather on mobile